createdAt,value
2019-02-24T00:00:33.175Z,1033.12
2019-02-24T00:01:42.570Z,1033.19
2019-02-24T00:02:51.912Z,1033.16
2019-02-24T00:04:01.862Z,1033.11
2019-02-24T00:05:11.162Z,1033.06
2019-02-24T00:06:20.588Z,1033.07
2019-02-24T00:07:29.906Z,1033.08
2019-02-24T00:08:39.331Z,1033.07
2019-02-24T00:09:48.697Z,1033.09
2019-02-24T00:10:57.984Z,1033.09
2019-02-24T00:12:07.317Z,1033.07
2019-02-24T00:13:16.674Z,1033.1
2019-02-24T00:14:25.745Z,1033.06
2019-02-24T00:15:34.814Z,1033.03
2019-02-24T00:16:44.397Z,1033.1
2019-02-24T00:17:53.981Z,1033.07
2019-02-24T00:19:03.817Z,1033.11
2019-02-24T00:20:13.525Z,1033.12
2019-02-24T00:21:22.878Z,1033.12
2019-02-24T00:22:32.468Z,1033.15
2019-02-24T00:23:42.202Z,1033.14
2019-02-24T00:24:51.839Z,1033.15
2019-02-24T00:26:01.005Z,1033.14
2019-02-24T00:27:11.514Z,1033.12
2019-02-24T00:28:21.078Z,1033.11
2019-02-24T00:29:30.400Z,1033.09
2019-02-24T00:30:39.774Z,1033.1
2019-02-24T00:31:49.133Z,1033.12
2019-02-24T00:32:58.571Z,1033.13
2019-02-24T00:34:07.904Z,1033.14
2019-02-24T00:35:16.986Z,1033.16
2019-02-24T00:36:26.973Z,1033.15
2019-02-24T00:37:36.088Z,1033.12
2019-02-24T00:38:44.900Z,1033.16
2019-02-24T00:39:54.002Z,1033.14
2019-02-24T00:41:03.288Z,1033.18
2019-02-24T00:42:12.670Z,1033.16
2019-02-24T00:43:22.415Z,1033.12
2019-02-24T00:44:31.837Z,1033.15
2019-02-24T00:45:40.971Z,1033.17
2019-02-24T00:46:50.302Z,1033.15
2019-02-24T00:47:59.451Z,1033.17
2019-02-24T00:49:08.950Z,1033.17
2019-02-24T00:50:18.120Z,1033.12
2019-02-24T00:51:26.938Z,1033.11
2019-02-24T00:52:36.065Z,1033.1
2019-02-24T00:53:45.418Z,1033.1
2019-02-24T00:54:54.794Z,1033.08
2019-02-24T00:56:03.968Z,1033.08
2019-02-24T00:57:13.852Z,1033.04
2019-02-24T00:58:23.412Z,1033.02
2019-02-24T00:59:33.085Z,1033.03
2019-02-24T01:00:42.572Z,1033.03
2019-02-24T01:01:51.799Z,1033.01
2019-02-24T01:03:02.356Z,1033.02
2019-02-24T01:04:11.536Z,1033.08
2019-02-24T01:05:20.975Z,1033.08
2019-02-24T01:06:30.324Z,1033.12
2019-02-24T01:07:39.386Z,1033.08
2019-02-24T01:08:48.494Z,1033.05
2019-02-24T01:09:57.688Z,1033.04
2019-02-24T01:11:07.039Z,1033.02
2019-02-24T01:12:16.599Z,1032.96
2019-02-24T01:13:26.178Z,1032.91
2019-02-24T01:14:35.824Z,1032.93
2019-02-24T01:15:45.666Z,1032.92
2019-02-24T01:16:55.003Z,1032.98
2019-02-24T01:18:04.666Z,1032.92
2019-02-24T01:19:14.142Z,1032.99
2019-02-24T01:20:23.968Z,1032.94
2019-02-24T01:21:33.552Z,1032.95
2019-02-24T01:22:42.910Z,1032.95
2019-02-24T01:23:52.082Z,1032.96
2019-02-24T01:25:01.412Z,1032.92
2019-02-24T01:26:10.907Z,1032.92
2019-02-24T01:27:20.564Z,1032.92
2019-02-24T01:28:29.923Z,1032.93
2019-02-24T01:29:39.116Z,1032.93
2019-02-24T01:30:49.016Z,1032.89
2019-02-24T01:31:58.477Z,1032.9
2019-02-24T01:33:08.230Z,1032.92
2019-02-24T01:34:18.099Z,1032.92
2019-02-24T01:35:27.677Z,1032.92
2019-02-24T01:36:37.338Z,1032.88
2019-02-24T01:37:46.829Z,1032.9
2019-02-24T01:38:56.278Z,1032.89
2019-02-24T01:40:05.718Z,1032.89
2019-02-24T01:41:15.353Z,1032.91
2019-02-24T01:42:24.678Z,1032.88
2019-02-24T01:43:34.156Z,1032.93
2019-02-24T01:44:43.708Z,1032.9
2019-02-24T01:45:52.621Z,1032.91
2019-02-24T01:47:01.924Z,1032.89
2019-02-24T01:48:11.545Z,1032.86
2019-02-24T01:49:21.431Z,1032.86
2019-02-24T01:50:30.576Z,1032.84
2019-02-24T01:51:39.899Z,1032.84
2019-02-24T01:52:49.142Z,1032.84
2019-02-24T01:53:58.906Z,1032.79
2019-02-24T01:55:08.285Z,1032.77
2019-02-24T01:56:17.661Z,1032.77
2019-02-24T01:57:26.547Z,1032.76
2019-02-24T01:58:35.647Z,1032.74
2019-02-24T01:59:44.789Z,1032.71
2019-02-24T02:00:54.079Z,1032.75
2019-02-24T02:02:03.265Z,1032.71
2019-02-24T02:03:12.584Z,1032.71
2019-02-24T02:04:21.475Z,1032.73
2019-02-24T02:05:31.186Z,1032.67
2019-02-24T02:06:40.883Z,1032.66
2019-02-24T02:07:50.515Z,1032.7
2019-02-24T02:08:59.653Z,1032.66
2019-02-24T02:10:09.023Z,1032.64
2019-02-24T02:11:18.563Z,1032.64
2019-02-24T02:12:28.326Z,1032.58
2019-02-24T02:13:38.274Z,1032.56
2019-02-24T02:14:47.587Z,1032.56
2019-02-24T02:17:50.375Z,1032.51
2019-02-24T02:18:59.594Z,1032.51
2019-02-24T02:20:08.460Z,1032.49
2019-02-24T02:21:18.391Z,1032.45
2019-02-24T02:22:28.276Z,1032.44
2019-02-24T02:23:37.619Z,1032.47
2019-02-24T02:24:47.012Z,1032.45
2019-02-24T02:25:56.900Z,1032.4
2019-02-24T02:27:06.319Z,1032.42
2019-02-24T02:28:15.886Z,1032.44
2019-02-24T02:29:24.805Z,1032.47
2019-02-24T02:30:34.290Z,1032.41
2019-02-24T02:31:44.121Z,1032.39
2019-02-24T02:32:54.016Z,1032.39
2019-02-24T02:34:03.799Z,1032.39
2019-02-24T02:35:13.439Z,1032.44
2019-02-24T02:36:23.061Z,1032.43
2019-02-24T02:37:32.963Z,1032.43
2019-02-24T02:38:42.282Z,1032.4
2019-02-24T02:39:52.154Z,1032.38
2019-02-24T02:41:01.752Z,1032.44
2019-02-24T02:42:11.332Z,1032.42
2019-02-24T02:43:20.656Z,1032.4
2019-02-24T02:44:30.010Z,1032.39
2019-02-24T02:45:39.331Z,1032.39
2019-02-24T02:46:48.653Z,1032.4
2019-02-24T02:47:58.266Z,1032.37
2019-02-24T02:49:08.093Z,1032.39
2019-02-24T02:50:18.009Z,1032.39
2019-02-24T02:51:27.363Z,1032.38
2019-02-24T02:52:36.997Z,1032.43
2019-02-24T02:53:46.524Z,1032.38
2019-02-24T02:54:55.609Z,1032.35
2019-02-24T02:56:05.188Z,1032.35
2019-02-24T02:57:15.589Z,1032.35
2019-02-24T02:58:25.094Z,1032.38
2019-02-24T02:59:34.617Z,1032.36
2019-02-24T03:00:44.018Z,1032.37
2019-02-24T03:01:53.299Z,1032.36
2019-02-24T03:03:02.855Z,1032.37
2019-02-24T03:04:12.673Z,1032.4
2019-02-24T03:05:21.699Z,1032.34
2019-02-24T03:06:31.182Z,1032.35
2019-02-24T03:07:40.504Z,1032.34
2019-02-24T03:08:49.840Z,1032.33
2019-02-24T03:09:58.889Z,1032.29
2019-02-24T03:11:10.039Z,1032.38
2019-02-24T03:12:19.849Z,1032.38
2019-02-24T03:13:29.124Z,1032.37
2019-02-24T03:14:38.610Z,1032.41
2019-02-24T03:15:47.696Z,1032.41
2019-02-24T03:16:57.023Z,1032.35
2019-02-24T03:18:06.826Z,1032.39
2019-02-24T03:19:16.668Z,1032.41
2019-02-24T03:20:25.985Z,1032.44
2019-02-24T03:21:35.506Z,1032.42
2019-02-24T03:22:44.766Z,1032.41
2019-02-24T03:23:54.627Z,1032.39
2019-02-24T03:25:04.176Z,1032.38
2019-02-24T03:26:13.769Z,1032.41
2019-02-24T03:27:23.411Z,1032.43
2019-02-24T03:28:32.767Z,1032.41
2019-02-24T03:29:42.069Z,1032.47
2019-02-24T03:30:51.894Z,1032.49
2019-02-24T03:32:02.050Z,1032.49
2019-02-24T03:33:12.159Z,1032.51
2019-02-24T03:34:22.056Z,1032.52
2019-02-24T03:35:31.660Z,1032.52
2019-02-24T03:36:41.264Z,1032.54
2019-02-24T03:37:50.619Z,1032.5
2019-02-24T03:39:00.693Z,1032.49
2019-02-24T03:40:10.466Z,1032.52
2019-02-24T03:41:19.286Z,1032.47
2019-02-24T03:42:28.850Z,1032.48
2019-02-24T03:43:38.128Z,1032.49
2019-02-24T03:44:47.695Z,1032.54
2019-02-24T03:45:57.013Z,1032.55
2019-02-24T03:47:06.539Z,1032.54
2019-02-24T03:48:15.351Z,1032.52
2019-02-24T03:49:24.452Z,1032.54
2019-02-24T03:50:34.032Z,1032.57
2019-02-24T03:51:43.128Z,1032.53
2019-02-24T03:52:52.506Z,1032.6
2019-02-24T03:54:02.128Z,1032.58
2019-02-24T03:55:11.953Z,1032.56
2019-02-24T03:56:21.744Z,1032.61
2019-02-24T03:57:31.548Z,1032.56
2019-02-24T03:58:40.822Z,1032.57
2019-02-24T03:59:50.383Z,1032.57
2019-02-24T04:00:59.949Z,1032.58
2019-02-24T04:02:09.467Z,1032.6
2019-02-24T04:03:19.302Z,1032.58
2019-02-24T04:04:29.130Z,1032.62
2019-02-24T04:05:38.485Z,1032.6
2019-02-24T04:06:47.784Z,1032.66
2019-02-24T04:07:57.068Z,1032.6
2019-02-24T04:09:06.588Z,1032.63
2019-02-24T04:10:16.120Z,1032.63
2019-02-24T04:11:25.162Z,1032.63
2019-02-24T04:12:34.449Z,1032.62
2019-02-24T04:13:44.489Z,1032.65
2019-02-24T04:14:54.285Z,1032.61
2019-02-24T04:16:03.816Z,1032.61
2019-02-24T04:17:13.393Z,1032.63
2019-02-24T04:18:22.623Z,1032.64
2019-02-24T04:19:31.950Z,1032.69
2019-02-24T04:20:41.587Z,1032.7
2019-02-24T04:21:50.825Z,1032.69
2019-02-24T04:23:00.387Z,1032.69
2019-02-24T04:24:10.090Z,1032.72
2019-02-24T04:25:19.757Z,1032.71
2019-02-24T04:26:28.542Z,1032.74
2019-02-24T04:27:37.772Z,1032.73
2019-02-24T04:28:46.764Z,1032.73
2019-02-24T04:29:56.642Z,1032.74
2019-02-24T04:31:06.308Z,1032.75
2019-02-24T04:32:16.077Z,1032.75
2019-02-24T04:33:25.362Z,1032.74
2019-02-24T04:34:34.882Z,1032.79
2019-02-24T04:35:43.955Z,1032.72
2019-02-24T04:36:53.430Z,1032.74
2019-02-24T04:38:02.818Z,1032.75
2019-02-24T04:39:11.858Z,1032.72
2019-02-24T04:40:21.219Z,1032.73
2019-02-24T04:41:30.301Z,1032.77
2019-02-24T04:42:39.684Z,1032.75
2019-02-24T04:43:49.517Z,1032.79
2019-02-24T04:44:59.358Z,1032.77
2019-02-24T04:46:08.976Z,1032.75
2019-02-24T04:47:17.800Z,1032.8
2019-02-24T04:48:27.126Z,1032.78
2019-02-24T04:49:36.688Z,1032.82
2019-02-24T04:50:46.253Z,1032.85
2019-02-24T04:51:56.057Z,1032.86
2019-02-24T04:53:06.133Z,1032.86
2019-02-24T04:54:15.458Z,1032.85
2019-02-24T04:55:24.749Z,1032.87
2019-02-24T04:56:33.843Z,1032.93
2019-02-24T04:57:42.953Z,1032.96
2019-02-24T04:58:52.532Z,1032.97
2019-02-24T05:00:02.061Z,1032.98
2019-02-24T05:01:11.978Z,1032.97
2019-02-24T05:02:21.079Z,1032.97
2019-02-24T05:03:30.862Z,1032.96
2019-02-24T05:04:40.523Z,1033.02
2019-02-24T05:05:50.102Z,1032.99
2019-02-24T05:06:59.222Z,1033.02
2019-02-24T05:08:08.774Z,1032.99
2019-02-24T05:09:18.381Z,1033.02
2019-02-24T05:10:27.942Z,1033.02
2019-02-24T05:11:36.750Z,1033.05
2019-02-24T05:12:45.815Z,1033.04
2019-02-24T05:13:55.380Z,1033.02
2019-02-24T05:15:05.185Z,1033.01
2019-02-24T05:16:14.578Z,1032.98
2019-02-24T05:17:24.225Z,1032.99
2019-02-24T05:18:33.808Z,1032.99
2019-02-24T05:19:43.362Z,1032.99
2019-02-24T05:20:52.425Z,1032.98
2019-02-24T05:22:01.743Z,1032.94
2019-02-24T05:23:11.428Z,1032.98
2019-02-24T05:24:20.767Z,1032.99
2019-02-24T05:25:30.131Z,1032.98
2019-02-24T05:26:39.267Z,1033.01
2019-02-24T05:27:48.340Z,1033.01
2019-02-24T05:28:57.658Z,1033.05
2019-02-24T05:30:06.928Z,1033.05
2019-02-24T05:31:16.437Z,1033.09
2019-02-24T05:32:26.267Z,1033.06
2019-02-24T05:33:35.321Z,1033.07
2019-02-24T05:34:44.633Z,1033.02
2019-02-24T05:35:54.440Z,1033.03
2019-02-24T05:37:03.741Z,1033.02
2019-02-24T05:38:13.314Z,1032.99
2019-02-24T05:39:23.106Z,1033.01
2019-02-24T05:40:33.140Z,1033.04
2019-02-24T05:41:42.201Z,1033.01
2019-02-24T05:42:51.514Z,1033.01
2019-02-24T05:44:01.082Z,1032.98
2019-02-24T05:45:10.410Z,1033
2019-02-24T05:46:20.143Z,1033
2019-02-24T05:47:30.026Z,1033.01
2019-02-24T05:48:39.601Z,1032.98
2019-02-24T05:49:49.385Z,1032.92
2019-02-24T05:50:58.534Z,1032.94
2019-02-24T05:52:07.599Z,1032.94
2019-02-24T05:53:16.882Z,1032.95
2019-02-24T05:54:26.383Z,1032.93
2019-02-24T05:55:35.405Z,1032.95
2019-02-24T05:56:44.960Z,1032.93
2019-02-24T05:57:54.758Z,1032.94
2019-02-24T05:59:04.268Z,1032.95
2019-02-24T06:00:13.573Z,1032.94
2019-02-24T06:01:22.853Z,1032.96
2019-02-24T06:02:32.199Z,1032.96
2019-02-24T06:03:41.518Z,1032.94
2019-02-24T06:04:50.575Z,1032.99
2019-02-24T06:06:00.154Z,1033.02
2019-02-24T06:07:09.684Z,1032.97
2019-02-24T06:08:19.297Z,1033.03
2019-02-24T06:09:28.356Z,1033.03
2019-02-24T06:10:38.196Z,1033.03
2019-02-24T06:11:47.943Z,1033.05
2019-02-24T06:12:57.226Z,1033.01
2019-02-24T06:14:06.246Z,1033.06
2019-02-24T06:15:15.589Z,1033.04
2019-02-24T06:16:24.867Z,1033.03
2019-02-24T06:17:34.738Z,1032.98
2019-02-24T06:18:44.333Z,1032.98
2019-02-24T06:19:53.183Z,1032.97
2019-02-24T06:21:02.483Z,1032.96
2019-02-24T06:22:12.088Z,1032.92
2019-02-24T06:23:21.727Z,1032.94
2019-02-24T06:24:30.787Z,1032.99
2019-02-24T06:25:40.585Z,1033.02
2019-02-24T06:26:50.084Z,1033.05
2019-02-24T06:27:59.634Z,1033.03
2019-02-24T06:29:08.918Z,1033.07
2019-02-24T06:30:18.223Z,1033.07
2019-02-24T06:31:27.719Z,1033.07
2019-02-24T06:32:37.530Z,1033.08
2019-02-24T06:33:47.062Z,1033.08
2019-02-24T06:34:56.375Z,1033.06
2019-02-24T06:36:06.406Z,1033.08
2019-02-24T06:37:15.681Z,1033.07
2019-02-24T06:38:24.977Z,1033.11
2019-02-24T06:39:34.480Z,1033.16
2019-02-24T06:40:43.803Z,1033.14
2019-02-24T06:41:53.592Z,1033.14
2019-02-24T06:43:03.171Z,1033.15
2019-02-24T06:44:12.467Z,1033.17
2019-02-24T06:45:21.512Z,1033.11
2019-02-24T06:46:30.235Z,1033.09
2019-02-24T06:47:39.247Z,1033.11
2019-02-24T06:48:49.036Z,1033.13
2019-02-24T06:49:58.361Z,1033.18
2019-02-24T06:51:07.873Z,1033.21
2019-02-24T06:52:17.132Z,1033.21
2019-02-24T06:53:28.621Z,1033.29
2019-02-24T06:54:38.126Z,1033.25
2019-02-24T06:55:47.619Z,1033.23
2019-02-24T06:56:57.371Z,1033.23
2019-02-24T06:58:06.654Z,1033.21
2019-02-24T06:59:15.980Z,1033.21
2019-02-24T07:00:25.002Z,1033.19
2019-02-24T07:01:34.835Z,1033.22
2019-02-24T07:02:43.903Z,1033.21
2019-02-24T07:03:54.527Z,1033.21
2019-02-24T07:05:03.718Z,1033.21
2019-02-24T07:06:13.492Z,1033.21
2019-02-24T07:07:23.020Z,1033.2
2019-02-24T07:08:32.860Z,1033.24
2019-02-24T07:09:41.633Z,1033.26
2019-02-24T07:10:51.153Z,1033.23
2019-02-24T07:12:00.709Z,1033.28
2019-02-24T07:13:09.761Z,1033.29
2019-02-24T07:14:18.873Z,1033.35
2019-02-24T07:15:28.482Z,1033.38
2019-02-24T07:16:38.293Z,1033.38
2019-02-24T07:17:47.827Z,1033.38
2019-02-24T07:18:57.111Z,1033.4
2019-02-24T07:20:07.354Z,1033.39
2019-02-24T07:21:16.682Z,1033.4
2019-02-24T07:22:25.703Z,1033.41
2019-02-24T07:23:35.253Z,1033.4
2019-02-24T07:24:44.252Z,1033.39
2019-02-24T07:25:53.245Z,1033.39
2019-02-24T07:27:02.718Z,1033.39
2019-02-24T07:28:11.980Z,1033.41
2019-02-24T07:29:21.244Z,1033.41
2019-02-24T07:30:30.715Z,1033.36
2019-02-24T07:31:39.725Z,1033.43
2019-02-24T07:32:49.194Z,1033.42
2019-02-24T07:33:58.450Z,1033.37
2019-02-24T07:35:07.933Z,1033.4
2019-02-24T07:36:17.703Z,1033.39
2019-02-24T07:37:27.527Z,1033.38
2019-02-24T07:38:37.033Z,1033.34
2019-02-24T07:39:48.305Z,1033.32
2019-02-24T07:40:57.836Z,1033.34
2019-02-24T07:42:06.869Z,1033.32
2019-02-24T07:43:16.178Z,1033.37
2019-02-24T07:44:25.918Z,1033.4
2019-02-24T07:45:34.942Z,1033.4
2019-02-24T07:46:44.565Z,1033.33
2019-02-24T07:47:53.411Z,1033.31
2019-02-24T07:49:03.235Z,1033.33
2019-02-24T07:50:12.792Z,1033.3
2019-02-24T07:51:21.569Z,1033.3
2019-02-24T07:52:31.119Z,1033.29
2019-02-24T07:53:40.954Z,1033.32
2019-02-24T07:54:50.493Z,1033.3
2019-02-24T07:56:00.298Z,1033.26
2019-02-24T07:57:09.892Z,1033.3
2019-02-24T07:58:18.712Z,1033.28
2019-02-24T07:59:28.258Z,1033.28
2019-02-24T08:00:37.533Z,1033.27
2019-02-24T08:01:47.129Z,1033.28
2019-02-24T08:02:56.931Z,1033.3
2019-02-24T08:04:05.705Z,1033.31
2019-02-24T08:05:15.233Z,1033.37
2019-02-24T08:06:25.270Z,1033.35
2019-02-24T08:07:34.577Z,1033.37
2019-02-24T08:08:43.865Z,1033.36
2019-02-24T08:09:53.160Z,1033.39
2019-02-24T08:11:02.406Z,1033.43
2019-02-24T08:12:12.130Z,1033.46
2019-02-24T08:13:21.429Z,1033.48
2019-02-24T08:14:30.935Z,1033.47
2019-02-24T08:15:39.884Z,1033.46
2019-02-24T08:16:49.167Z,1033.45
2019-02-24T08:17:58.435Z,1033.49
2019-02-24T08:19:07.987Z,1033.46
2019-02-24T08:20:17.980Z,1033.43
2019-02-24T08:21:26.999Z,1033.4
2019-02-24T08:22:36.759Z,1033.38
2019-02-24T08:23:46.069Z,1033.35
2019-02-24T08:24:55.123Z,1033.34
2019-02-24T08:26:04.416Z,1033.32
2019-02-24T08:27:14.230Z,1033.32
2019-02-24T08:28:23.336Z,1033.32
2019-02-24T08:29:32.393Z,1033.32
2019-02-24T08:30:41.976Z,1033.29
2019-02-24T08:31:51.400Z,1033.32
2019-02-24T08:33:00.160Z,1033.27
2019-02-24T08:34:09.738Z,1033.3
2019-02-24T08:35:18.484Z,1033.33
2019-02-24T08:36:27.533Z,1033.33
2019-02-24T08:37:37.316Z,1033.34
2019-02-24T08:38:46.886Z,1033.37
2019-02-24T08:39:56.359Z,1033.34
2019-02-24T08:41:05.874Z,1033.37
2019-02-24T08:42:15.675Z,1033.37
2019-02-24T08:43:25.390Z,1033.31
2019-02-24T08:44:34.901Z,1033.34
2019-02-24T08:45:43.706Z,1033.36
2019-02-24T08:46:53.239Z,1033.41
2019-02-24T08:48:02.482Z,1033.36
2019-02-24T08:50:53.237Z,1033.38
2019-02-24T08:52:03.342Z,1033.34
2019-02-24T08:53:13.864Z,1033.41
2019-02-24T08:54:23.432Z,1033.39
2019-02-24T08:55:33.035Z,1033.35
2019-02-24T08:56:42.496Z,1033.37
2019-02-24T08:57:52.120Z,1033.36
2019-02-24T08:59:01.670Z,1033.37
2019-02-24T09:00:10.927Z,1033.36
2019-02-24T09:01:20.681Z,1033.39
2019-02-24T09:02:30.144Z,1033.42
2019-02-24T09:03:39.162Z,1033.46
2019-02-24T09:04:48.802Z,1033.48
2019-02-24T09:05:57.786Z,1033.49
2019-02-24T09:07:08.467Z,1033.45
2019-02-24T09:08:18.195Z,1033.48
2019-02-24T09:09:27.250Z,1033.47
2019-02-24T09:10:36.502Z,1033.48
2019-02-24T09:11:46.018Z,1033.45
2019-02-24T09:12:55.301Z,1033.45
2019-02-24T09:14:04.144Z,1033.49
2019-02-24T09:15:13.966Z,1033.44
2019-02-24T09:16:23.529Z,1033.47
2019-02-24T09:17:33.120Z,1033.44
2019-02-24T09:18:42.197Z,1033.49
2019-02-24T09:19:51.453Z,1033.48
2019-02-24T09:21:00.666Z,1033.47
2019-02-24T09:22:10.220Z,1033.48
2019-02-24T09:23:19.261Z,1033.54
2019-02-24T09:24:28.407Z,1033.54
2019-02-24T09:25:37.415Z,1033.53
2019-02-24T09:26:47.089Z,1033.53
2019-02-24T09:27:56.879Z,1033.51
2019-02-24T09:29:06.407Z,1033.53
2019-02-24T09:30:15.978Z,1033.56
2019-02-24T09:31:25.269Z,1033.57
2019-02-24T09:32:35.143Z,1033.57
2019-02-24T09:33:44.168Z,1033.58
2019-02-24T09:34:53.158Z,1033.61
2019-02-24T09:36:03.175Z,1033.62
2019-02-24T09:37:12.436Z,1033.65
2019-02-24T09:38:21.970Z,1033.65
2019-02-24T09:39:31.227Z,1033.65
2019-02-24T09:40:40.513Z,1033.66
2019-02-24T09:41:49.979Z,1033.73
2019-02-24T09:42:59.739Z,1033.71
2019-02-24T09:44:09.039Z,1033.72
2019-02-24T09:45:18.341Z,1033.76
2019-02-24T09:46:28.211Z,1033.71
2019-02-24T09:47:46.272Z,1033.79
2019-02-24T09:48:56.243Z,1033.82
2019-02-24T09:50:05.520Z,1033.78
2019-02-24T09:51:15.140Z,1033.8
2019-02-24T09:52:24.395Z,1033.79
2019-02-24T09:53:33.393Z,1033.8
2019-02-24T09:54:42.693Z,1033.84
2019-02-24T09:55:52.259Z,1033.86
2019-02-24T09:57:02.073Z,1033.84
2019-02-24T09:58:11.571Z,1033.78
2019-02-24T09:59:21.391Z,1033.84
2019-02-24T10:00:31.168Z,1033.85
2019-02-24T10:01:40.458Z,1033.86
2019-02-24T10:02:50.223Z,1033.85
2019-02-24T10:04:00.584Z,1033.86
2019-02-24T10:05:10.187Z,1033.88
2019-02-24T10:06:19.435Z,1033.94
2019-02-24T10:07:28.713Z,1033.86
2019-02-24T10:08:38.474Z,1033.87
2019-02-24T10:09:47.952Z,1033.88
2019-02-24T10:10:57.451Z,1033.88
2019-02-24T10:12:06.719Z,1033.87
2019-02-24T10:13:15.958Z,1033.8
2019-02-24T10:14:25.235Z,1033.82
2019-02-24T10:15:34.731Z,1033.83
2019-02-24T10:16:44.247Z,1033.83
2019-02-24T10:17:53.232Z,1033.83
2019-02-24T10:19:02.789Z,1033.82
2019-02-24T10:20:12.134Z,1033.88
2019-02-24T10:21:21.409Z,1033.87
2019-02-24T10:22:30.768Z,1033.86
2019-02-24T10:23:41.056Z,1033.88
2019-02-24T10:24:50.418Z,1033.88
2019-02-24T10:25:59.756Z,1033.93
2019-02-24T10:27:10.233Z,1033.95
2019-02-24T10:28:20.219Z,1033.97
2019-02-24T10:29:30.227Z,1034.04
2019-02-24T10:30:39.261Z,1034.05
2019-02-24T10:31:48.548Z,1034.05
2019-02-24T10:32:58.198Z,1034.04
2019-02-24T10:34:09.211Z,1034.07
2019-02-24T10:35:18.518Z,1034.02
2019-02-24T10:36:29.247Z,1034.05
2019-02-24T10:37:38.841Z,1034.07
2019-02-24T10:38:47.965Z,1034.11
2019-02-24T10:39:57.378Z,1034.15
2019-02-24T10:41:07.192Z,1034.13
2019-02-24T10:42:17.329Z,1034.13
2019-02-24T10:43:26.344Z,1034.11
2019-02-24T10:44:35.978Z,1034.09
2019-02-24T10:45:45.885Z,1034.09
2019-02-24T10:46:55.616Z,1034.08
2019-02-24T10:48:13.658Z,1034.05
2019-02-24T10:49:23.694Z,1034.05
2019-02-24T10:50:32.916Z,1034.04
2019-02-24T10:51:42.357Z,1034
2019-02-24T10:52:51.568Z,1033.99
2019-02-24T10:54:01.343Z,1034.01
2019-02-24T10:55:10.624Z,1033.97
2019-02-24T10:56:20.184Z,1033.99
2019-02-24T10:57:29.209Z,1033.97
2019-02-24T10:58:38.435Z,1033.94
2019-02-24T10:59:47.963Z,1033.95
2019-02-24T11:00:56.977Z,1033.95
2019-02-24T11:02:06.811Z,1033.97
2019-02-24T11:03:16.118Z,1033.96
2019-02-24T11:04:25.340Z,1033.92
2019-02-24T11:05:34.661Z,1033.95
2019-02-24T11:06:44.174Z,1033.89
2019-02-24T11:07:53.954Z,1033.9
2019-02-24T11:09:03.274Z,1033.89
2019-02-24T11:10:12.298Z,1033.87
2019-02-24T11:11:21.924Z,1033.89
2019-02-24T11:12:30.967Z,1033.83
2019-02-24T11:13:40.249Z,1033.76
2019-02-24T11:14:49.751Z,1033.75
2019-02-24T11:15:58.741Z,1033.7
2019-02-24T11:17:08.335Z,1033.67
2019-02-24T11:18:17.382Z,1033.69
2019-02-24T11:19:26.636Z,1033.71
2019-02-24T11:20:36.198Z,1033.74
2019-02-24T11:21:45.696Z,1033.76
2019-02-24T11:22:55.237Z,1033.82
2019-02-24T11:24:04.718Z,1033.84
2019-02-24T11:25:13.716Z,1033.84
2019-02-24T11:26:25.058Z,1033.85
2019-02-24T11:27:34.142Z,1033.82
2019-02-24T11:28:43.621Z,1033.81
2019-02-24T11:29:52.974Z,1033.79
2019-02-24T11:31:02.502Z,1033.78
2019-02-24T11:32:11.747Z,1033.76
2019-02-24T11:33:20.789Z,1033.74
2019-02-24T11:34:30.283Z,1033.73
2019-02-24T11:35:40.149Z,1033.77
2019-02-24T11:36:49.716Z,1033.72
2019-02-24T11:37:58.769Z,1033.72
2019-02-24T11:39:07.855Z,1033.72
2019-02-24T11:40:17.667Z,1033.73
2019-02-24T11:41:27.320Z,1033.7
2019-02-24T11:42:36.376Z,1033.71
2019-02-24T11:43:45.560Z,1033.66
2019-02-24T11:44:54.933Z,1033.68
2019-02-24T11:46:04.044Z,1033.63
2019-02-24T11:47:12.865Z,1033.65
2019-02-24T11:48:21.957Z,1033.66
2019-02-24T11:49:31.200Z,1033.6
2019-02-24T11:50:40.521Z,1033.61
2019-02-24T11:51:51.158Z,1033.56
2019-02-24T11:53:08.946Z,1033.61
2019-02-24T11:54:19.788Z,1033.6
2019-02-24T11:55:29.456Z,1033.6
2019-02-24T11:56:38.706Z,1033.59
2019-02-24T11:57:48.056Z,1033.61
2019-02-24T11:58:57.349Z,1033.58
2019-02-24T12:00:06.589Z,1033.56
2019-02-24T12:01:15.723Z,1033.58
2019-02-24T12:02:33.872Z,1033.51
2019-02-24T12:03:44.905Z,1033.56
2019-02-24T12:04:54.159Z,1033.52
2019-02-24T12:06:02.881Z,1033.54
2019-02-24T12:07:12.146Z,1033.53
2019-02-24T12:08:21.410Z,1033.53
2019-02-24T12:09:30.633Z,1033.54
2019-02-24T12:10:39.620Z,1033.51
2019-02-24T12:11:49.360Z,1033.52
2019-02-24T12:12:58.861Z,1033.53
2019-02-24T12:14:08.325Z,1033.51
2019-02-24T12:15:17.812Z,1033.54
2019-02-24T12:16:27.099Z,1033.53
2019-02-24T12:17:36.607Z,1033.49
2019-02-24T12:18:45.904Z,1033.51
2019-02-24T12:19:55.644Z,1033.47
2019-02-24T12:21:05.134Z,1033.49
2019-02-24T12:22:15.735Z,1033.51
2019-02-24T12:23:24.494Z,1033.46
2019-02-24T12:24:33.722Z,1033.48
2019-02-24T12:25:43.458Z,1033.45
2019-02-24T12:26:52.973Z,1033.43
2019-02-24T12:28:02.225Z,1033.44
2019-02-24T12:29:11.472Z,1033.41
2019-02-24T12:30:21.244Z,1033.37
2019-02-24T12:31:30.478Z,1033.37
2019-02-24T12:32:39.694Z,1033.31
2019-02-24T12:33:49.217Z,1033.3
2019-02-24T12:34:59.756Z,1033.31
2019-02-24T12:36:09.266Z,1033.28
2019-02-24T12:37:18.491Z,1033.31
2019-02-24T12:38:27.478Z,1033.26
2019-02-24T12:39:36.738Z,1033.23
2019-02-24T12:40:46.272Z,1033.22
2019-02-24T12:41:55.784Z,1033.21
2019-02-24T12:43:05.314Z,1033.23
2019-02-24T12:44:14.786Z,1033.19
2019-02-24T12:45:23.774Z,1033.2
2019-02-24T12:46:33.019Z,1033.17
2019-02-24T12:47:42.018Z,1033.22
2019-02-24T12:48:51.520Z,1033.24
2019-02-24T12:50:03.359Z,1033.21
2019-02-24T12:51:13.275Z,1033.17
2019-02-24T12:52:22.565Z,1033.24
2019-02-24T12:53:31.804Z,1033.2
2019-02-24T12:54:41.041Z,1033.17
2019-02-24T12:55:50.355Z,1033.17
2019-02-24T12:56:59.868Z,1033.13
2019-02-24T12:58:09.423Z,1033.16
2019-02-24T12:59:19.216Z,1033.14
2019-02-24T13:00:28.253Z,1033.15
2019-02-24T13:01:37.470Z,1033.15
2019-02-24T13:02:47.216Z,1033.1
2019-02-24T13:03:57.183Z,1033.08
2019-02-24T13:05:06.786Z,1033.07
2019-02-24T13:06:16.065Z,1033.02
2019-02-24T13:07:25.056Z,1033.03
2019-02-24T13:08:34.847Z,1033.02
2019-02-24T13:09:44.303Z,1033.04
2019-02-24T13:10:54.328Z,1033.06
2019-02-24T13:12:03.800Z,1033.04
2019-02-24T13:13:13.551Z,1033.02
2019-02-24T13:14:22.555Z,1033.04
2019-02-24T13:15:31.797Z,1033.03
2019-02-24T13:16:41.065Z,1033.01
2019-02-24T13:17:50.791Z,1033.01
2019-02-24T13:19:00.342Z,1032.99
2019-02-24T13:20:10.381Z,1032.98
2019-02-24T13:21:20.196Z,1032.98
2019-02-24T13:22:29.735Z,1032.98
2019-02-24T13:23:39.080Z,1032.98
2019-02-24T13:24:48.312Z,1032.96
2019-02-24T13:25:57.870Z,1032.96
2019-02-24T13:27:07.602Z,1033
2019-02-24T13:28:17.155Z,1032.94
2019-02-24T13:29:26.903Z,1032.95
2019-02-24T13:30:36.210Z,1032.94
2019-02-24T13:31:45.570Z,1032.95
2019-02-24T13:32:54.898Z,1032.9
2019-02-24T13:34:03.686Z,1032.88
2019-02-24T13:35:13.419Z,1032.87
2019-02-24T13:36:22.656Z,1032.84
2019-02-24T13:37:32.173Z,1032.82
2019-02-24T13:38:41.456Z,1032.79
2019-02-24T13:39:50.970Z,1032.77
2019-02-24T13:41:01.684Z,1032.74
2019-02-24T13:42:10.741Z,1032.8
2019-02-24T13:43:19.993Z,1032.81
2019-02-24T13:44:28.750Z,1032.82
2019-02-24T13:45:37.768Z,1032.85
2019-02-24T13:46:47.565Z,1032.88
2019-02-24T13:47:57.164Z,1032.87
2019-02-24T13:49:06.495Z,1032.82
2019-02-24T13:50:15.805Z,1032.83
2019-02-24T13:51:25.084Z,1032.84
2019-02-24T13:52:34.425Z,1032.84
2019-02-24T13:53:43.732Z,1032.8
2019-02-24T13:54:53.812Z,1032.77
2019-02-24T13:56:02.957Z,1032.77
2019-02-24T13:57:12.286Z,1032.75
2019-02-24T13:58:21.358Z,1032.75
2019-02-24T13:59:30.456Z,1032.69
2019-02-24T14:00:39.743Z,1032.71
2019-02-24T14:01:49.632Z,1032.64
2019-02-24T14:02:58.686Z,1032.61
2019-02-24T14:04:08.189Z,1032.62
2019-02-24T14:05:17.490Z,1032.56
2019-02-24T14:06:26.532Z,1032.52